Hollywood, South Carolina
Current Conditions -  °F | °C
As of 8:15 AM on Friday 31 Oct 2014 (Local Time) from KJZI Reporting Station
Broken Clouds Broken Clouds  
Wind Chill: 57°   Ceiling: 4800
Heat Index: 57°   Visibility: 10mi
Dew Point: 55°   Wind: 0mph
Humidity: 94%   Direction: NA
Pressure: 29.9"   Gusts: NA
Location:  32.73°N, 80.24°W
Report Text: KJZI 311215Z AUTO 00000KT 10SM BKN048 14/13 A2990 RMK A02 P000
Loading
Personal Weather Stations






























Interactive Weather Map
Tropical Storm Tracking
New forecast layout! Learn more

10-Day Weather Forecast

Advertisements
Track Severe Weather on mobile